Time;durP1;ratioP1;P1;durP2;ratioP2;P2;SDS_P1;SDS_P2;PMS_P1;PMS_P2;Temp;Humidity;BMP_temperature;BMP_pressure;BME280_temperature;BME280_humidity;BME280_pressure;Samples;Min_cycle;Max_cycle;Signal;HPM_P1;HPM_P2
2022/07/10 00:01:26;;;;;;;4.07;1.83;;;16.50;99.90;;;;;;6125720;23;20609;-79
2022/07/10 00:03:54;;;;;;;3.93;1.47;;;16.40;99.90;;;;;;6151330;23;20504;-78
2022/07/10 00:06:21;;;;;;;4.33;1.50;;;16.40;1.00;;;;;;6125918;23;20165;-79
2022/07/10 00:08:48;;;;;;;4.93;1.40;;;16.40;1.00;;;;;;6126904;23;20781;-79
2022/07/10 00:11:15;;;;;;;4.50;1.67;;;16.40;1.00;;;;;;6125581;23;20268;-79
2022/07/10 00:13:42;;;;;;;3.90;1.37;;;16.40;99.90;;;;;;6126776;23;20551;-81
2022/07/10 00:16:10;;;;;;;2.67;1.63;;;16.40;1.00;;;;;;6126585;23;20173;-79
2022/07/10 00:18:37;;;;;;;5.70;1.53;;;16.40;1.00;;;;;;6126560;23;20168;-78
2022/07/10 00:21:06;;;;;;;3.70;1.40;;;16.40;1.00;;;;;;6125195;23;20268;-78
2022/07/10 00:23:33;;;;;;;5.60;1.63;;;16.40;1.00;;;;;;6126815;23;20533;-79
2022/07/10 00:26:00;;;;;;;2.07;1.70;;;16.10;1.00;;;;;;6129513;23;20188;-81
2022/07/10 00:28:26;;;;;;;3.77;1.57;;;16.10;99.90;;;;;;6153743;23;20602;-80
2022/07/10 00:30:53;;;;;;;2.27;1.43;;;16.20;78.90;;;;;;6154634;23;20207;-79
2022/07/10 00:33:20;;;;;;;4.43;1.60;;;16.20;99.90;;;;;;6130655;23;20179;-79
2022/07/10 00:35:47;;;;;;;4.53;1.53;;;16.20;1.00;;;;;;6130611;23;20157;-78
2022/07/10 00:38:14;;;;;;;5.97;1.57;;;16.30;1.00;;;;;;6129253;23;20644;-80
2022/07/10 00:40:41;;;;;;;4.73;1.53;;;16.40;1.00;;;;;;6130438;23;20199;-78
2022/07/10 00:43:09;;;;;;;4.03;1.30;;;16.30;1.00;;;;;;6154979;23;20168;-81
2022/07/10 00:45:36;;;;;;;5.00;1.50;;;16.30;1.00;;;;;;6171887;23;20285;-78
2022/07/10 00:48:03;;;;;;;5.03;1.53;;;16.40;1.00;;;;;;6186094;23;20398;-79
2022/07/10 00:50:33;;;;;;;2.17;1.60;;;16.30;1.00;;;;;;6136172;23;20167;-77
2022/07/10 00:53:02;;;;;;;4.53;1.97;;;16.20;1.00;;;;;;6162052;23;20652;-78
2022/07/10 00:55:30;;;;;;;2.00;1.47;;;16.20;1.00;;;;;;6159656;23;20161;-78
2022/07/10 00:57:58;;;;;;;5.43;1.80;;;16.20;1.00;;;;;;6137158;23;20157;-79
2022/07/10 01:00:26;;;;;;;4.20;1.40;;;16.10;1.00;;;;;;6158980;23;20165;-78
2022/07/10 01:02:54;;;;;;;4.07;1.60;;;16.20;1.00;;;;;;6157279;23;20175;-78
2022/07/10 01:05:21;;;;;;;3.17;1.67;;;16.00;1.00;;;;;;6156744;23;20194;-77
2022/07/10 01:07:47;;;;;;;6.20;1.70;;;15.70;1.00;;;;;;6134754;23;20165;-78
2022/07/10 01:10:14;;;;;;;4.20;1.63;;;15.30;1.00;;;;;;6134966;23;20194;-79
2022/07/10 01:12:42;;;;;;;3.93;1.33;;;15.10;1.00;;;;;;6160678;23;20210;-79
2022/07/10 01:15:10;;;;;;;4.27;1.90;;;15.30;99.90;;;;;;6160059;23;20163;-77
2022/07/10 01:17:37;;;;;;;4.73;1.60;;;15.20;99.90;;;;;;6184181;23;20213;-77
2022/07/10 01:20:06;;;;;;;2.00;1.80;;;15.20;1.00;;;;;;6158026;23;20208;-77
2022/07/10 01:22:34;;;;;;;3.87;2.23;;;15.10;1.00;;;;;;6183869;23;20207;-81
2022/07/10 01:25:01;;;;;;;5.13;1.87;;;15.00;99.90;;;;;;6158283;23;20192;-80
2022/07/10 01:27:27;;;;;;;5.90;1.63;;;15.00;99.90;;;;;;6183084;23;20192;-77
2022/07/10 01:29:54;;;;;;;6.00;1.90;;;14.80;1.00;;;;;;6158340;23;20172;-78
2022/07/10 01:32:21;;;;;;;4.00;1.70;;;14.50;1.00;;;;;;6184528;23;20188;-77
2022/07/10 01:34:48;;;;;;;4.57;1.60;;;14.40;99.90;;;;;;6158530;23;20162;-77
2022/07/10 01:37:15;;;;;;;4.47;1.70;;;14.30;1.00;;;;;;6134063;23;20287;-79
2022/07/10 01:39:42;;;;;;;5.37;1.67;;;14.30;1.00;;;;;;6132822;23;20195;-78
2022/07/10 01:42:09;;;;;;;4.83;1.77;;;14.20;1.00;;;;;;6133157;23;20237;-83
2022/07/10 01:44:36;;;;;;;4.30;1.97;;;14.00;1.00;;;;;;6152254;23;20196;-78
2022/07/10 01:47:03;;;;;;;2.43;1.87;;;14.00;1.00;;;;;;6151929;23;20176;-78
2022/07/10 01:49:31;;;;;;;5.87;2.30;;;13.90;1.00;;;;;;6152594;23;20191;-79
2022/07/10 01:51:58;;;;;;;4.47;1.50;;;14.30;99.90;;;;;;6127275;23;20536;-78
2022/07/10 01:54:25;;;;;;;2.20;1.70;;;14.40;99.90;;;;;;6127935;23;20171;-78
2022/07/10 01:56:52;;;;;;;3.67;1.87;;;14.50;99.90;;;;;;6128110;23;20161;-79
2022/07/10 01:59:18;;;;;;;4.50;1.90;;;14.40;99.90;;;;;;6128473;23;20165;-77
2022/07/10 02:01:45;;;;;;;7.50;1.87;;;14.20;1.00;;;;;;6126941;23;20169;-78
2022/07/10 02:06:58;;;;;;;6.07;1.77;;;14.00;1.00;;;;;;6155839;23;20473;-77
2022/07/10 02:09:25;;;;;;;3.60;1.70;;;14.10;1.00;;;;;;6126910;23;20214;-78
2022/07/10 02:11:51;;;;;;;3.43;1.80;;;13.90;99.90;;;;;;6127691;23;20211;-77
2022/07/10 02:14:18;;;;;;;4.13;1.60;;;13.80;99.90;;;;;;6128003;23;20210;-77
2022/07/10 02:16:45;;;;;;;6.47;1.67;;;13.80;99.90;;;;;;6126202;23;20217;-80
2022/07/10 02:19:12;;;;;;;6.00;2.07;;;13.90;99.90;;;;;;6126646;23;20204;-77
2022/07/10 02:21:40;;;;;;;3.30;1.87;;;13.90;99.90;;;;;;6126328;23;20176;-78
2022/07/10 02:24:07;;;;;;;3.10;1.80;;;14.10;99.90;;;;;;6128118;23;20178;-78
2022/07/10 02:26:33;;;;;;;4.53;2.00;;;14.20;99.90;;;;;;6126099;23;20203;-78
2022/07/10 02:29:00;;;;;;;2.00;1.80;;;14.30;99.90;;;;;;6128113;23;20170;-78
2022/07/10 02:31:27;;;;;;;5.27;2.83;;;14.50;99.90;;;;;;6151231;23;20172;-79
2022/07/10 02:33:54;;;;;;;7.40;2.50;;;14.50;99.90;;;;;;6126064;23;20178;-78
2022/07/10 02:36:21;;;;;;;3.13;2.10;;;14.60;99.90;;;;;;6126742;23;20193;-78
2022/07/10 02:38:48;;;;;;;4.10;2.20;;;14.60;99.90;;;;;;6151650;23;20281;-78
2022/07/10 02:41:15;;;;;;;4.10;2.03;;;14.70;99.90;;;;;;6127694;23;20260;-78
2022/07/10 02:43:42;;;;;;;4.13;1.83;;;14.90;99.90;;;;;;6151342;23;20553;-78
2022/07/10 02:46:10;;;;;;;8.30;2.33;;;15.00;99.90;;;;;;6149807;23;20267;-78
2022/07/10 02:48:37;;;;;;;6.07;2.13;;;15.10;99.90;;;;;;6157480;23;20512;-78
2022/07/10 02:51:04;;;;;;;3.13;1.60;;;15.10;99.90;;;;;;6133203;23;20182;-78
2022/07/10 02:53:31;;;;;;;3.80;2.07;;;14.90;99.90;;;;;;6156081;23;20604;-79
2022/07/10 02:55:58;;;;;;;7.73;1.83;;;15.00;99.90;;;;;;6157170;23;20165;-78
2022/07/10 02:58:25;;;;;;;6.33;1.70;;;15.10;99.90;;;;;;6155673;23;20656;-79
2022/07/10 03:00:53;;;;;;;5.03;1.47;;;15.20;26.90;;;;;;6156503;23;20661;-78
2022/07/10 03:03:21;;;;;;;4.77;2.00;;;15.20;1.00;;;;;;6180468;23;20178;-80
2022/07/10 03:05:47;;;;;;;3.00;2.00;;;14.70;99.90;;;;;;6207625;23;20569;-78
2022/07/10 03:08:14;;;;;;;5.97;1.90;;;14.30;99.90;;;;;;6155217;23;20167;-78
2022/07/10 03:10:41;;;;;;;4.17;1.87;;;14.10;99.90;;;;;;6155663;23;20162;-81
2022/07/10 03:13:08;;;;;;;4.87;1.90;;;14.10;99.90;;;;;;6181681;23;20231;-84
2022/07/10 03:15:35;;;;;;;3.13;1.87;;;14.10;99.90;;;;;;6131246;23;20223;-82
2022/07/10 03:18:02;;;;;;;3.83;2.13;;;14.00;99.90;;;;;;6181118;23;20174;-78
2022/07/10 03:20:29;;;;;;;2.70;1.93;;;13.80;99.90;;;;;;6133295;23;20186;-78
2022/07/10 03:22:56;;;;;;;5.23;2.47;;;13.80;99.90;;;;;;6156758;23;20179;-80
2022/07/10 03:25:23;;;;;;;6.53;2.20;;;13.70;99.90;;;;;;6156790;23;20600;-77
2022/07/10 03:27:50;;;;;;;6.20;2.20;;;13.70;99.90;;;;;;6130915;23;20170;-76
2022/07/10 03:30:17;;;;;;;4.57;2.43;;;13.80;99.90;;;;;;6156982;23;20715;-78
2022/07/10 03:32:44;;;;;;;2.57;2.03;;;13.60;99.90;;;;;;6131777;23;20519;-76
2022/07/10 03:35:11;;;;;;;4.27;2.30;;;13.60;99.90;;;;;;6130601;23;20174;-77
2022/07/10 03:37:38;;;;;;;2.20;2.00;;;13.60;99.90;;;;;;6156580;23;20159;-77
2022/07/10 03:40:05;;;;;;;5.50;2.17;;;13.50;99.90;;;;;;6155360;23;20247;-81
2022/07/10 03:42:32;;;;;;;2.03;1.93;;;13.50;99.90;;;;;;6132431;23;20257;-77
2022/07/10 03:44:59;;;;;;;3.83;1.90;;;13.70;99.90;;;;;;6155151;23;20253;-80
2022/07/10 03:47:26;;;;;;;2.63;2.00;;;13.90;99.90;;;;;;6131361;23;20173;-77
2022/07/10 03:49:53;;;;;;;3.17;1.97;;;13.90;99.90;;;;;;6155192;23;20202;-77
2022/07/10 03:52:20;;;;;;;3.93;1.80;;;14.10;99.90;;;;;;6157736;23;20180;-77
2022/07/10 03:54:47;;;;;;;4.57;2.00;;;14.00;99.90;;;;;;6156533;23;20159;-77
2022/07/10 04:00:00;;;;;;;4.67;2.07;;;14.10;99.90;;;;;;6207557;23;20199;-81
2022/07/10 04:02:27;;;;;;;3.90;2.03;;;14.30;99.90;;;;;;6132543;23;20171;-78
2022/07/10 04:04:54;;;;;;;5.63;1.70;;;14.40;99.90;;;;;;6133057;23;20600;-78
2022/07/10 04:07:21;;;;;;;7.30;2.10;;;14.40;99.90;;;;;;6158980;23;20163;-78
2022/07/10 04:09:48;;;;;;;7.10;1.97;;;14.50;99.90;;;;;;6133895;23;20281;-78
2022/07/10 04:12:15;;;;;;;4.63;1.83;;;14.60;99.90;;;;;;6135126;23;20188;-77
2022/07/10 04:14:42;;;;;;;3.73;1.80;;;14.40;99.90;;;;;;6135583;23;20163;-80
2022/07/10 04:17:09;;;;;;;1.87;1.60;;;14.40;99.90;;;;;;6134098;23;20220;-81
2022/07/10 04:19:37;;;;;;;3.67;1.73;;;14.20;99.90;;;;;;6134352;23;20473;-78
2022/07/10 04:22:04;;;;;;;5.50;1.60;;;14.20;99.90;;;;;;6132758;23;20201;-78
2022/07/10 04:24:31;;;;;;;5.10;1.90;;;14.30;99.90;;;;;;6134014;23;20217;-77
2022/07/10 04:26:58;;;;;;;3.33;1.83;;;14.40;99.90;;;;;;6157836;23;20191;-80
2022/07/10 04:29:25;;;;;;;5.13;1.93;;;14.30;99.90;;;;;;6161420;23;20157;-78
2022/07/10 04:31:53;;;;;;;4.43;1.90;;;14.30;99.90;;;;;;6133165;23;20167;-78
2022/07/10 04:34:20;;;;;;;3.80;1.93;;;14.30;99.90;;;;;;6182929;23;20167;-77
2022/07/10 04:36:47;;;;;;;3.37;1.57;;;14.20;99.90;;;;;;6182273;23;20263;-77
2022/07/10 04:39:14;;;;;;;3.70;2.03;;;14.30;99.90;;;;;;6135716;23;20195;-78
2022/07/10 04:41:41;;;;;;;2.10;1.60;;;14.50;99.90;;;;;;6134105;23;20248;-77
2022/07/10 04:44:08;;;;;;;4.80;1.80;;;14.70;99.90;;;;;;6160360;23;20489;-77
2022/07/10 04:46:35;;;;;;;4.40;1.50;;;14.90;99.90;;;;;;6129601;23;20216;-78
2022/07/10 04:49:02;;;;;;;3.70;1.63;;;15.00;99.90;;;;;;6153503;23;20163;-77
2022/07/10 04:51:28;;;;;;;2.97;1.43;;;15.10;99.90;;;;;;6178861;23;20162;-78
2022/07/10 04:53:57;;;;;;;4.40;1.77;;;15.10;99.90;;;;;;6151953;23;20215;-80
2022/07/10 04:56:24;;;;;;;3.00;1.40;;;15.30;99.90;;;;;;6154336;23;20172;-78
2022/07/10 04:58:51;;;;;;;3.00;1.30;;;15.30;99.90;;;;;;6153418;23;20233;-77
2022/07/10 05:01:19;;;;;;;2.67;1.37;;;15.40;99.90;;;;;;6176741;23;20208;-81
2022/07/10 05:03:47;;;;;;;5.37;1.77;;;15.30;99.90;;;;;;6151550;23;20180;-77
2022/07/10 05:06:14;;;;;;;5.63;1.70;;;15.50;99.90;;;;;;6152370;23;20261;-75
2022/07/10 05:08:41;;;;;;;5.73;1.70;;;15.70;99.90;;;;;;6153827;23;20175;-77
2022/07/10 05:11:08;;;;;;;3.67;1.20;;;15.80;99.90;;;;;;6153989;23;20161;-78
2022/07/10 05:13:35;;;;;;;6.23;1.60;;;15.90;99.90;;;;;;6156249;23;20164;-77
2022/07/10 05:16:03;;;;;;;8.97;1.93;;;16.00;99.90;;;;;;6155361;23;20270;-77
2022/07/10 05:18:30;;;;;;;4.73;1.40;;;16.10;99.90;;;;;;6155125;23;20179;-78
2022/07/10 05:20:57;;;;;;;3.10;1.30;;;16.30;99.90;;;;;;6155012;23;20176;-78
2022/07/10 05:23:24;;;;;;;3.43;1.50;;;16.50;99.90;;;;;;6153781;23;20271;-77
2022/07/10 05:25:51;;;;;;;2.80;1.40;;;16.50;99.90;;;;;;6153677;23;20211;-78
2022/07/10 05:28:18;;;;;;;5.23;2.00;;;16.50;99.90;;;;;;6178375;23;20194;-78
2022/07/10 05:30:45;;;;;;;5.50;1.33;;;16.40;99.90;;;;;;6154138;23;20230;-77
2022/07/10 05:33:11;;;;;;;4.53;1.57;;;16.40;99.90;;;;;;6154634;23;20226;-78
2022/07/10 05:35:38;;;;;;;3.83;1.23;;;16.50;99.90;;;;;;6151610;23;20179;-80
2022/07/10 05:38:05;;;;;;;4.43;1.27;;;16.60;99.90;;;;;;6178680;23;20196;-79
2022/07/10 05:40:32;;;;;;;5.23;1.50;;;16.60;99.90;;;;;;6153552;23;20235;-77
2022/07/10 05:43:00;;;;;;;5.90;1.40;;;16.90;99.90;;;;;;6152519;23;20173;-78
2022/07/10 05:45:27;;;;;;;3.93;1.47;;;17.10;99.90;;;;;;6178933;23;20220;-78
2022/07/10 05:47:54;;;;;;;2.97;1.30;;;17.10;99.90;;;;;;6129804;23;20165;-78
2022/07/10 05:50:21;;;;;;;2.33;1.03;;;17.20;99.90;;;;;;6152699;23;20156;-78
2022/07/10 05:52:48;;;;;;;4.33;1.10;;;17.30;99.90;;;;;;6129336;23;20603;-79
2022/07/10 05:55:15;;;;;;;3.73;1.13;;;17.30;99.90;;;;;;6153765;23;20173;-78
2022/07/10 05:57:42;;;;;;;5.50;1.20;;;17.10;99.90;;;;;;6129329;23;20238;-78
2022/07/10 06:00:10;;;;;;;3.87;1.70;;;17.10;99.90;;;;;;6126311;23;20223;-78
2022/07/10 06:02:36;;;;;;;5.73;1.40;;;17.10;99.90;;;;;;6130168;23;20187;-77
2022/07/10 06:05:04;;;;;;;7.40;1.63;;;17.10;99.90;;;;;;6153553;23;20563;-77
2022/07/10 06:07:31;;;;;;;4.57;1.40;;;17.00;99.90;;;;;;6126777;23;20285;-79
2022/07/10 06:09:57;;;;;;;2.50;1.10;;;17.00;99.90;;;;;;6125746;23;20192;-80
2022/07/10 06:12:25;;;;;;;3.33;1.10;;;17.20;99.90;;;;;;6126612;23;20158;-80
2022/07/10 06:14:52;;;;;;;3.20;1.10;;;17.10;99.90;;;;;;6126853;23;20207;-80
2022/07/10 06:17:18;;;;;;;3.20;1.17;;;17.00;99.90;;;;;;6126327;23;20239;-80
2022/07/10 06:19:45;;;;;;;2.23;1.10;;;17.10;99.90;;;;;;6124908;23;20180;-84
2022/07/10 06:22:30;;;;;;;3.60;1.10;;;17.10;99.90;;;;;;6126534;23;20175;-81
2022/07/10 06:24:59;;;;;;;3.30;1.20;;;17.10;99.90;;;;;;6130289;23;20612;-79
2022/07/10 06:27:26;;;;;;;6.13;1.87;;;17.10;99.90;;;;;;6153887;23;20179;-79
2022/07/10 06:29:53;;;;;;;6.83;1.47;;;17.10;99.90;;;;;;6129611;23;20158;-81
2022/07/10 06:32:20;;;;;;;4.10;1.37;;;17.10;99.90;;;;;;6152787;23;20223;-80
2022/07/10 06:34:47;;;;;;;4.70;1.27;;;17.20;99.90;;;;;;6127907;23;20216;-80
2022/07/10 06:37:14;;;;;;;7.13;1.40;;;17.40;99.90;;;;;;6128873;23;20219;-79
2022/07/10 06:39:41;;;;;;;3.77;1.00;;;17.40;99.90;;;;;;6127699;23;20196;-79
2022/07/10 06:42:08;;;;;;;2.90;1.27;;;17.40;99.90;;;;;;6128800;23;20612;-78
2022/07/10 06:44:35;;;;;;;4.97;1.23;;;17.30;99.90;;;;;;6153588;23;20487;-77
2022/07/10 06:49:48;;;;;;;5.37;1.43;;;17.40;99.90;;;;;;6156728;23;20560;-78
2022/07/10 06:52:16;;;;;;;4.07;1.23;;;17.50;99.90;;;;;;6128428;23;20242;-78
2022/07/10 06:54:43;;;;;;;7.03;1.13;;;17.70;99.90;;;;;;6126828;23;20244;-78
2022/07/10 06:57:11;;;;;;;5.87;1.20;;;17.90;99.90;;;;;;6128767;23;20161;-82
2022/07/10 06:59:38;;;;;;;2.87;1.30;;;18.10;99.90;;;;;;6155508;23;20216;-83
2022/07/10 07:02:05;;;;;;;4.60;1.40;;;17.70;99.90;;;;;;6130073;23;20176;-82
2022/07/10 07:04:32;;;;;;;3.90;1.30;;;17.80;99.90;;;;;;6130448;23;20214;-85
2022/07/10 07:06:59;;;;;;;5.87;1.30;;;17.70;99.90;;;;;;6105186;23;20263;-85
2022/07/10 07:09:25;;;;;;;3.47;1.50;;;17.80;99.90;;;;;;6156298;23;20220;-84
2022/07/10 07:11:52;;;;;;;5.50;1.47;;;18.00;99.90;;;;;;6128613;23;20164;-86
2022/07/10 07:14:19;;;;;;;3.13;1.20;;;18.10;99.90;;;;;;6127737;23;20161;-79
2022/07/10 07:16:57;;;;;;;4.53;2.00;;;18.30;99.90;;;;;;6151635;23;20650;-81
2022/07/10 07:19:31;;;;;;;6.40;2.20;;;18.50;99.90;;;;;;6156769;23;20166;-78
2022/07/10 07:24:54;;;;;;;2.30;1.10;;;18.40;99.90;;;;;;6156771;23;20259;-80
2022/07/10 07:27:21;;;;;;;4.57;1.10;;;18.50;99.90;;;;;;6153684;23;20228;-80
2022/07/10 07:29:48;;;;;;;2.37;1.37;;;18.30;99.90;;;;;;6128167;23;20184;-80
2022/07/10 07:32:14;;;;;;;6.47;1.80;;;18.20;99.90;;;;;;6153249;23;20161;-79
2022/07/10 07:34:41;;;;;;;2.37;1.07;;;18.20;99.90;;;;;;6152160;23;20172;-82
2022/07/10 07:37:08;;;;;;;3.03;1.27;;;18.10;99.90;;;;;;6099285;23;20586;-77
2022/07/10 07:39:36;;;;;;;4.17;1.40;;;18.00;99.90;;;;;;6125016;23;20176;-77
2022/07/10 07:42:03;;;;;;;6.47;1.73;;;17.80;99.90;;;;;;6129439;23;20625;-81
2022/07/10 07:44:30;;;;;;;5.53;1.30;;;18.00;99.90;;;;;;6152951;23;20468;-79
2022/07/10 07:46:57;;;;;;;5.30;1.80;;;18.10;99.90;;;;;;6128090;23;20227;-82
2022/07/10 07:49:24;;;;;;;8.27;1.93;;;18.20;99.90;;;;;;6130277;23;20162;-79
2022/07/10 07:51:51;;;;;;;4.67;1.63;;;18.10;99.90;;;;;;6127869;23;20591;-77
2022/07/10 07:54:18;;;;;;;6.97;1.83;;;18.20;99.90;;;;;;6126944;23;20164;-76
2022/07/10 07:56:45;;;;;;;4.10;1.67;;;18.30;99.90;;;;;;6127318;23;20612;-78
2022/07/10 07:59:12;;;;;;;4.83;1.57;;;18.40;99.90;;;;;;6152650;23;20180;-79
2022/07/10 08:01:39;;;;;;;4.63;1.50;;;18.40;99.90;;;;;;6129061;23;20176;-78
2022/07/10 08:04:06;;;;;;;3.97;1.60;;;18.30;99.90;;;;;;6127268;23;20560;-82
2022/07/10 08:06:36;;;;;;;6.07;1.50;;;18.40;99.90;;;;;;6124965;23;20186;-77
2022/07/10 08:09:03;;;;;;;5.97;2.00;;;18.40;99.90;;;;;;6130901;23;20187;-78
2022/07/10 08:11:30;;;;;;;4.33;1.77;;;18.60;99.90;;;;;;6128620;23;20600;-77
2022/07/10 08:13:56;;;;;;;3.37;1.60;;;18.30;99.90;;;;;;6127379;23;20544;-78
2022/07/10 08:16:23;;;;;;;5.27;1.50;;;18.50;99.90;;;;;;6152738;23;20169;-78
2022/07/10 08:18:51;;;;;;;5.20;2.03;;;18.70;99.90;;;;;;6153815;23;20158;-81
2022/07/10 08:21:18;;;;;;;5.73;1.50;;;18.70;99.90;;;;;;6151752;23;20175;-78
2022/07/10 08:23:44;;;;;;;4.30;1.70;;;18.60;99.90;;;;;;6127985;23;20237;-77
2022/07/10 08:26:11;;;;;;;6.20;1.30;;;18.70;99.90;;;;;;6128671;23;20552;-78
2022/07/10 08:28:41;;;;;;;3.77;1.80;;;18.70;99.90;;;;;;6151577;23;20436;-80
2022/07/10 08:31:08;;;;;;;5.70;1.70;;;18.90;99.90;;;;;;6125818;23;20158;-78
2022/07/10 08:33:41;;;;;;;4.77;1.80;;;18.60;99.90;;;;;;6128670;23;20574;-78
2022/07/10 08:36:08;;;;;;;6.63;1.90;;;18.50;99.90;;;;;;6125924;23;20180;-78
2022/07/10 08:38:56;;;;;;;2.20;1.80;;;18.50;99.90;;;;;;6156303;23;20168;-79
2022/07/10 08:41:25;;;;;;;6.90;1.40;;;18.60;99.90;;;;;;6127542;23;20185;-80
2022/07/10 08:43:54;;;;;;;4.40;1.67;;;18.50;99.90;;;;;;6130890;23;20492;-77
2022/07/10 08:46:21;;;;;;;3.87;1.40;;;18.60;99.90;;;;;;6155493;23;20205;-77
2022/07/10 08:48:53;;;;;;;4.77;1.80;;;18.60;99.90;;;;;;6137342;23;20166;-79
2022/07/10 08:51:40;;;;;;;6.90;1.47;;;18.60;99.90;;;;;;6186693;23;20211;-77
2022/07/10 08:54:08;;;;;;;7.30;1.57;;;18.40;99.90;;;;;;6212190;23;20186;-78
2022/07/10 08:56:36;;;;;;;4.97;1.77;;;18.40;99.90;;;;;;6157430;23;20164;-78
2022/07/10 08:59:04;;;;;;;2.17;1.43;;;18.50;99.90;;;;;;6181133;23;20313;-77
2022/07/10 09:01:32;;;;;;;2.40;1.37;;;18.40;99.90;;;;;;6137173;23;20240;-76
2022/07/10 09:03:59;;;;;;;3.50;1.80;;;18.50;99.90;;;;;;6159272;23;20525;-77
2022/07/10 09:06:29;;;;;;;4.27;1.80;;;18.70;99.90;;;;;;6160141;23;20178;-77
2022/07/10 09:09:05;;;;;;;5.10;2.27;;;18.70;99.90;;;;;;6159886;23;20536;-78
2022/07/10 09:11:33;;;;;;;3.90;1.80;;;18.60;99.90;;;;;;6131732;23;20174;-78
2022/07/10 09:14:07;;;;;;;5.67;1.60;;;18.80;99.90;;;;;;6185560;23;20194;-76
2022/07/10 09:16:37;;;;;;;2.80;1.57;;;18.70;99.90;;;;;;6211667;23;20222;-77
2022/07/10 09:19:25;;;;;;;4.07;1.77;;;18.70;99.90;;;;;;6161940;23;20173;-77
2022/07/10 09:21:54;;;;;;;3.83;1.70;;;18.50;99.90;;;;;;6185103;23;20175;-76
2022/07/10 09:24:22;;;;;;;4.17;1.77;;;18.60;99.90;;;;;;6162146;23;20191;-77
2022/07/10 09:27:05;;;;;;;4.53;1.70;;;18.60;99.90;;;;;;6161882;23;20219;-77
2022/07/10 09:29:44;;;;;;;2.50;2.10;;;19.10;99.90;;;;;;6139742;23;20277;-77
2022/07/10 09:32:11;;;;;;;2.97;1.97;;;19.20;99.90;;;;;;6189726;23;20158;-77
2022/07/10 09:34:43;;;;;;;3.10;1.90;;;19.60;99.90;;;;;;6136638;23;20196;-78
2022/07/10 09:37:20;;;;;;;3.27;1.90;;;19.70;99.90;;;;;;6185576;23;20170;-77
2022/07/10 09:39:59;;;;;;;3.10;1.50;;;19.50;99.90;;;;;;6185833;23;20197;-76
2022/07/10 09:42:30;;;;;;;4.20;1.73;;;19.80;99.90;;;;;;6186307;23;20194;-77
2022/07/10 09:45:12;;;;;;;2.37;1.73;;;19.90;99.90;;;;;;6203064;23;20206;-77
2022/07/10 09:47:41;;;;;;;4.07;1.60;;;20.00;99.90;;;;;;6181648;23;20179;-77
2022/07/10 09:50:29;;;;;;;4.87;1.67;;;19.60;99.90;;;;;;6155867;23;20167;-77
2022/07/10 09:53:07;;;;;;;3.40;1.63;;;19.30;99.90;;;;;;6154953;23;20557;-78
2022/07/10 09:55:36;;;;;;;2.07;1.60;;;19.20;99.90;;;;;;6155801;23;20194;-76
2022/07/10 09:58:04;;;;;;;5.13;1.80;;;19.30;99.90;;;;;;6131459;23;20171;-76
2022/07/10 10:00:40;;;;;;;4.27;1.90;;;19.70;99.90;;;;;;6156382;23;20179;-80
2022/07/10 10:03:11;;;;;;;3.77;2.40;;;19.90;99.90;;;;;;6154015;23;20613;-78
2022/07/10 10:05:48;;;;;;;2.53;1.60;;;19.80;99.90;;;;;;6180173;23;20178;-83
2022/07/10 10:08:24;;;;;;;3.63;1.67;;;19.90;99.90;;;;;;6154616;23;20659;-79
2022/07/10 10:10:52;;;;;;;5.47;3.13;;;19.50;99.90;;;;;;6155230;23;20155;-79
2022/07/10 10:13:24;;;;;;;3.43;1.37;;;19.60;99.90;;;;;;6130877;23;20158;-80
2022/07/10 10:15:52;;;;;;;3.93;1.63;;;19.80;99.90;;;;;;6154393;23;20162;-78
2022/07/10 10:18:21;;;;;;;4.37;1.47;;;19.90;99.90;;;;;;6131861;23;20168;-78
2022/07/10 10:20:49;;;;;;;3.73;1.47;;;20.00;99.90;;;;;;6155437;23;20247;-77
2022/07/10 10:23:20;;;;;;;3.43;1.37;;;20.20;99.90;;;;;;6131216;23;20175;-78
2022/07/10 10:25:53;;;;;;;3.30;1.30;;;20.30;99.90;;;;;;6155109;23;20251;-77
2022/07/10 10:28:25;;;;;;;2.73;1.40;;;20.60;99.90;;;;;;6155878;23;20271;-78
2022/07/10 10:30:57;;;;;;;1.90;1.30;;;20.70;99.90;;;;;;6155280;23;20251;-79
2022/07/10 10:33:43;;;;;;;3.47;1.47;;;20.90;99.90;;;;;;6154882;23;20235;-78
2022/07/10 10:36:29;;;;;;;3.53;1.60;;;20.90;99.90;;;;;;6153964;23;20251;-78
2022/07/10 10:39:01;;;;;;;4.30;1.77;;;20.70;99.90;;;;;;6134719;23;20168;-79
2022/07/10 10:41:33;;;;;;;3.90;1.77;;;20.90;99.90;;;;;;6130598;23;20192;-79
2022/07/10 10:44:13;;;;;;;1.80;1.30;;;20.70;99.90;;;;;;6154695;23;20169;-78
2022/07/10 10:47:01;;;;;;;6.87;1.70;;;20.70;99.90;;;;;;6184365;23;20203;-78
2022/07/10 10:49:51;;;;;;;2.40;1.20;;;20.90;99.90;;;;;;6185332;23;20172;-79
2022/07/10 10:52:19;;;;;;;1.70;1.23;;;20.50;99.90;;;;;;6185764;23;20548;-80
2022/07/10 10:55:07;;;;;;;3.03;1.20;;;20.50;99.90;;;;;;6159286;23;20174;-79
2022/07/10 10:57:36;;;;;;;1.87;1.37;;;20.60;99.90;;;;;;6184704;23;20175;-79
2022/07/10 11:00:07;;;;;;;2.10;1.07;;;20.50;99.90;;;;;;6185558;23;20175;-77
2022/07/10 11:02:37;;;;;;;4.47;1.50;;;20.60;99.90;;;;;;6186031;23;20564;-81
2022/07/10 11:05:10;;;;;;;1.97;1.30;;;20.90;99.90;;;;;;6159997;23;20941;-79
2022/07/10 11:07:55;;;;;;;3.20;1.60;;;20.60;99.90;;;;;;6184784;23;20228;-80
2022/07/10 11:10:35;;;;;;;4.50;1.20;;;20.80;99.90;;;;;;6211885;23;20669;-79
2022/07/10 11:13:02;;;;;;;3.30;1.40;;;20.80;99.90;;;;;;6211660;23;20160;-80
2022/07/10 11:15:35;;;;;;;4.33;1.40;;;20.80;99.90;;;;;;6159461;23;20460;-79
2022/07/10 11:18:16;;;;;;;2.63;1.50;;;21.20;99.90;;;;;;6160366;23;20285;-79
2022/07/10 11:20:51;;;;;;;3.13;1.57;;;21.40;99.90;;;;;;6157753;23;20483;-79
2022/07/10 11:23:32;;;;;;;1.50;1.00;;;21.10;99.90;;;;;;6183014;23;20218;-81
2022/07/10 11:26:12;;;;;;;2.53;1.10;;;20.80;99.90;;;;;;6184306;23;20667;-78
2022/07/10 11:28:56;;;;;;;2.33;0.90;;;20.90;99.90;;;;;;6183110;23;20270;-77
2022/07/10 11:31:25;;;;;;;2.70;1.03;;;21.10;99.90;;;;;;6158143;23;20159;-80
2022/07/10 11:33:54;;;;;;;2.20;1.10;;;21.10;99.90;;;;;;6161044;23;20679;-79
2022/07/10 11:36:29;;;;;;;4.03;1.30;;;21.10;99.90;;;;;;6158855;23;20156;-79
2022/07/10 11:38:57;;;;;;;3.53;1.20;;;21.20;99.90;;;;;;6158495;23;20246;-79
2022/07/10 11:41:25;;;;;;;3.03;1.70;;;21.00;99.90;;;;;;6182642;23;20242;-79
2022/07/10 11:43:54;;;;;;;2.63;1.37;;;20.90;99.90;;;;;;6182534;23;20222;-80
2022/07/10 11:46:23;;;;;;;3.13;1.10;;;20.90;99.90;;;;;;6183298;23;20207;-79
2022/07/10 11:48:56;;;;;;;2.00;1.10;;;20.70;99.90;;;;;;6182754;23;20184;-82
2022/07/10 11:51:27;;;;;;;2.63;1.00;;;21.00;99.90;;;;;;6182067;23;20211;-79
2022/07/10 11:54:12;;;;;;;1.43;1.20;;;20.90;99.90;;;;;;6181882;23;20468;-79
2022/07/10 11:56:41;;;;;;;2.87;1.23;;;20.70;99.90;;;;;;6181615;23;20182;-81
2022/07/10 11:59:10;;;;;;;2.67;1.20;;;21.10;99.90;;;;;;6182583;23;20266;-78
2022/07/10 12:01:45;;;;;;;1.20;0.90;;;21.40;99.90;;;;;;6131169;23;20183;-79
2022/07/10 12:04:14;;;;;;;2.60;1.03;;;21.70;99.90;;;;;;6181123;23;20163;-78
2022/07/10 12:06:46;;;;;;;1.97;1.27;;;21.50;99.90;;;;;;6179813;23;20176;-81
2022/07/10 12:09:15;;;;;;;3.63;1.37;;;21.10;99.90;;;;;;6157244;23;20215;-79
2022/07/10 12:11:44;;;;;;;1.83;1.10;;;20.80;99.90;;;;;;6181699;23;20156;-80
2022/07/10 12:14:20;;;;;;;2.90;1.20;;;21.10;99.90;;;;;;6155896;23;20215;-78
2022/07/10 12:16:49;;;;;;;3.57;1.17;;;21.60;99.90;;;;;;6179143;23;20218;-78
2022/07/10 12:19:24;;;;;;;2.60;1.03;;;21.60;99.90;;;;;;6180728;23;20237;-76
2022/07/10 12:21:52;;;;;;;3.07;1.10;;;21.80;99.90;;;;;;6156925;23;20238;-81
2022/07/10 12:24:24;;;;;;;2.23;1.20;;;21.30;99.90;;;;;;6159327;23;20164;-80
2022/07/10 12:26:52;;;;;;;3.57;1.10;;;21.10;99.90;;;;;;6210096;23;20248;-81
2022/07/10 12:29:26;;;;;;;2.20;1.13;;;21.50;99.90;;;;;;6183564;23;20611;-81
2022/07/10 12:31:55;;;;;;;2.63;1.03;;;21.20;99.90;;;;;;6209265;23;20170;-80
2022/07/10 12:34:50;;;;;;;3.23;1.50;;;21.50;99.90;;;;;;6185619;23;20240;-81
2022/07/10 12:37:16;;;;;;;2.37;1.00;;;21.50;99.90;;;;;;6183754;23;20222;-81
2022/07/10 12:39:48;;;;;;;2.20;1.17;;;21.40;99.90;;;;;;6135251;23;20196;-80
2022/07/10 12:42:28;;;;;;;3.60;1.03;;;21.40;99.90;;;;;;6184966;23;20158;-81
2022/07/10 12:45:12;;;;;;;3.10;1.03;;;21.60;99.90;;;;;;6203147;23;20667;-82
2022/07/10 12:47:46;;;;;;;1.87;1.30;;;21.90;99.90;;;;;;6153800;23;20181;-80
2022/07/10 12:50:14;;;;;;;2.23;1.03;;;21.70;99.90;;;;;;6155008;23;20249;-80
2022/07/10 12:52:41;;;;;;;2.93;1.10;;;21.60;99.90;;;;;;6129502;23;20164;-80
2022/07/10 12:55:10;;;;;;;2.20;0.80;;;22.10;99.90;;;;;;6130912;23;20188;-80
2022/07/10 12:57:57;;;;;;;2.20;0.97;;;22.70;99.90;;;;;;6180230;23;20161;-80
2022/07/10 13:00:30;;;;;;;1.40;0.83;;;22.40;99.90;;;;;;6155975;23;20536;-80
2022/07/10 13:03:02;;;;;;;4.13;1.43;;;22.70;96.30;;;;;;6183128;23;20223;-81
2022/07/10 13:05:30;;;;;;;2.93;0.90;;;22.20;91.50;;;;;;6156848;23;20273;-81
2022/07/10 13:08:13;;;;;;;1.00;0.90;;;22.00;99.90;;;;;;6158241;23;20524;-81
2022/07/10 13:10:41;;;;;;;3.63;1.20;;;21.90;99.90;;;;;;6184153;23;20171;-81